Aérodrome :
LOGIN :

S'inscrire | Disclaimer

   EN    FR    IT 

 










Légende :    VFR   VFR Marginal   IFR   IFR Intensif   IFR Très Intensif
Visi : 
Plafond : 
>= 8 km
>= 3000ft
5 à 8 km
1000 à 3000 ft
1500m à 5 km
500 à 1000 ft
800 à 1500m
200 à 500 ft
< 800m
< 200 ft
Symboles :   Orages  Brouillard  Fortes neiges  Fortes précipitations  Vent > 20 kt
SIGMETs :   Divers  Orages  Givrage  Turbulence  Onde Orograph.  Cendres Volcan.







- Altitude de l'aérodrome : 636 ft


LPBJ - Beja Air Base

DERNIER METAR :
  • 301200Z 30013KT 4000 -RADZ BR SCT008 BKN020 BKN030 13/12 Q1016

METARs EXPIRÉS :
  • 301140Z 32014KT 4000 -RADZ BR SCT007 BKN020 BKN030 12/11 Q1016
  • 301125Z 31018KT 1500 -RADZ BR BKN008 BKN017 13/11 Q1016
  • 301100Z 25017KT 9999 FEW018 BKN020 16/12 Q1015
  • 301000Z 24019KT 9999 FEW020 BKN030 16/11 Q1015

TAF TAF LPBJ
Valide du 30 à 12h jusqu'au 01 à 12h UTC


301103Z 3012/0112 22015KT 9999 SCT012 BKN030
PROB40
TEMPO 3012/3015 3000 -RADZ BR BKN005 BKN020
BECMG 3012/3015 30012KT SCT030
TEMPO 3012/3019 32018G28KT
BECMG 3019/3022 35008KT CAVOK
Pas de NOTAMs connus pour ce terrain.



MET'MAP, la Météo Aéronautique d'un coup d'oeil ! - Copyright ORBIFLY Décembre 2007 - Disclaimer

ORBIFLY MET'MAP TEAM :

Programmation & Développement : Alexandra Zaïnal
Conception & Développement : Baudouin d'Aumeries
Co-Programmation & Développement : Marc-Olivier Méhu
Soutien technique & logistique : Manuel Goepfert

Contact : metmap@orbifly.com




SOURCES & CREDITS :

   NOAA